sensor_id;sensor_type;location;lat;lon;timestamp;P1;durP1;ratioP1;P2;durP2;ratioP2
75914;SDS011;64593;51.050;13.780;2024-03-08T07:01:05;39.42;;;20.20;;
75914;SDS011;64593;51.050;13.780;2024-03-08T07:06:10;45.70;;;18.50;;
75914;SDS011;64593;51.050;13.780;2024-03-08T07:11:12;35.38;;;17.30;;
75914;SDS011;64593;51.050;13.780;2024-03-08T07:16:32;36.80;;;15.75;;
75914;SDS011;64593;51.050;13.780;2024-03-08T07:21:35;32.60;;;16.85;;
75914;SDS011;64593;51.050;13.780;2024-03-08T07:26:37;34.85;;;16.88;;
75914;SDS011;64593;51.050;13.780;2024-03-08T07:31:40;44.45;;;19.65;;
75914;SDS011;64593;51.050;13.780;2024-03-08T07:37:00;32.00;;;15.27;;
75914;SDS011;64593;51.050;13.780;2024-03-08T07:42:02;29.60;;;15.93;;
75914;SDS011;64593;51.050;13.780;2024-03-08T07:47:04;31.83;;;16.33;;
75914;SDS011;64593;51.050;13.780;2024-03-08T07:52:06;31.02;;;15.63;;
75914;SDS011;64593;51.050;13.780;2024-03-08T07:57:09;35.30;;;17.65;;
75914;SDS011;64593;51.050;13.780;2024-03-08T08:02:29;34.42;;;17.20;;
75914;SDS011;64593;51.050;13.780;2024-03-08T08:07:33;33.05;;;16.50;;
75914;SDS011;64593;51.050;13.780;2024-03-08T08:12:35;34.60;;;15.32;;
75914;SDS011;64593;51.050;13.780;2024-03-08T08:17:37;32.05;;;15.55;;
75914;SDS011;64593;51.050;13.780;2024-03-08T08:22:40;39.47;;;18.35;;
75914;SDS011;64593;51.050;13.780;2024-03-08T08:27:42;32.53;;;15.70;;
75914;SDS011;64593;51.050;13.780;2024-03-08T08:32:44;29.63;;;16.95;;
75914;SDS011;64593;51.050;13.780;2024-03-08T08:38:07;29.63;;;16.35;;
75914;SDS011;64593;51.050;13.780;2024-03-08T08:43:09;27.80;;;13.93;;
75914;SDS011;64593;51.050;13.780;2024-03-08T08:48:11;29.73;;;14.63;;
75914;SDS011;64593;51.050;13.780;2024-03-08T08:53:12;28.70;;;15.40;;
75914;SDS011;64593;51.050;13.780;2024-03-08T08:58:34;25.35;;;12.52;;
75914;SDS011;64593;51.050;13.780;2024-03-08T09:03:36;29.50;;;15.40;;
75914;SDS011;64593;51.050;13.780;2024-03-08T09:08:41;26.02;;;15.15;;
75914;SDS011;64593;51.050;13.780;2024-03-08T09:13:45;27.77;;;13.73;;
75914;SDS011;64593;51.050;13.780;2024-03-08T09:18:48;28.55;;;13.98;;
75914;SDS011;64593;51.050;13.780;2024-03-08T09:23:50;28.05;;;13.95;;
75914;SDS011;64593;51.050;13.780;2024-03-08T09:28:52;22.65;;;11.55;;
75914;SDS011;64593;51.050;13.780;2024-03-08T09:38:58;27.85;;;14.20;;
75914;SDS011;64593;51.050;13.780;2024-03-08T09:44:19;25.85;;;11.43;;
75914;SDS011;64593;51.050;13.780;2024-03-08T09:49:21;23.45;;;12.88;;
75914;SDS011;64593;51.050;13.780;2024-03-08T09:54:23;23.13;;;11.80;;
75914;SDS011;64593;51.050;13.780;2024-03-08T09:59:26;22.63;;;12.88;;
75914;SDS011;64593;51.050;13.780;2024-03-08T10:04:45;22.40;;;13.93;;
75914;SDS011;64593;51.050;13.780;2024-03-08T10:10:07;23.77;;;11.90;;
75914;SDS011;64593;51.050;13.780;2024-03-08T10:15:09;24.80;;;12.40;;
75914;SDS011;64593;51.050;13.780;2024-03-08T10:20:14;25.75;;;15.73;;
75914;SDS011;64593;51.050;13.780;2024-03-08T10:25:19;24.67;;;12.68;;
75914;SDS011;64593;51.050;13.780;2024-03-08T10:30:21;24.05;;;12.85;;
75914;SDS011;64593;51.050;13.780;2024-03-08T10:35:23;25.63;;;15.27;;
75914;SDS011;64593;51.050;13.780;2024-03-08T10:40:44;25.73;;;13.38;;
75914;SDS011;64593;51.050;13.780;2024-03-08T10:45:47;22.98;;;13.35;;
75914;SDS011;64593;51.050;13.780;2024-03-08T10:50:50;23.00;;;11.77;;
75914;SDS011;64593;51.050;13.780;2024-03-08T10:55:54;22.73;;;13.10;;
75914;SDS011;64593;51.050;13.780;2024-03-08T11:00:58;25.83;;;13.38;;
75914;SDS011;64593;51.050;13.780;2024-03-08T11:22:36;24.40;;;13.32;;
75914;SDS011;64593;51.050;13.780;2024-03-08T11:27:52;22.65;;;14.68;;
75914;SDS011;64593;51.050;13.780;2024-03-08T11:32:55;25.08;;;14.88;;
75914;SDS011;64593;51.050;13.780;2024-03-08T11:38:03;20.60;;;11.38;;
75914;SDS011;64593;51.050;13.780;2024-03-08T11:43:05;19.38;;;10.70;;
75914;SDS011;64593;51.050;13.780;2024-03-08T11:48:08;19.50;;;11.52;;
75914;SDS011;64593;51.050;13.780;2024-03-08T11:53:10;19.65;;;10.95;;
75914;SDS011;64593;51.050;13.780;2024-03-08T11:58:15;18.17;;;10.18;;
75914;SDS011;64593;51.050;13.780;2024-03-08T12:03:19;14.85;;;8.50;;
75914;SDS011;64593;51.050;13.780;2024-03-08T12:08:40;16.77;;;8.82;;
75914;SDS011;64593;51.050;13.780;2024-03-08T12:13:42;16.17;;;9.38;;
75914;SDS011;64593;51.050;13.780;2024-03-08T12:18:46;16.02;;;7.93;;
75914;SDS011;64593;51.050;13.780;2024-03-08T12:24:05;15.40;;;8.43;;
75914;SDS011;64593;51.050;13.780;2024-03-08T12:29:26;16.85;;;9.48;;
75914;SDS011;64593;51.050;13.780;2024-03-08T12:34:29;19.25;;;9.55;;
75914;SDS011;64593;51.050;13.780;2024-03-08T12:39:33;13.98;;;8.48;;
75914;SDS011;64593;51.050;13.780;2024-03-08T12:44:36;15.23;;;8.02;;
75914;SDS011;64593;51.050;13.780;2024-03-08T12:49:44;15.10;;;8.15;;
75914;SDS011;64593;51.050;13.780;2024-03-08T12:54:46;12.90;;;7.57;;
75914;SDS011;64593;51.050;13.780;2024-03-08T12:59:49;14.73;;;8.98;;
75914;SDS011;64593;51.050;13.780;2024-03-08T13:04:52;14.13;;;8.68;;
75914;SDS011;64593;51.050;13.780;2024-03-08T13:09:59;17.15;;;8.23;;
75914;SDS011;64593;51.050;13.780;2024-03-08T13:15:01;16.17;;;8.63;;
75914;SDS011;64593;51.050;13.780;2024-03-08T13:20:03;17.48;;;12.93;;
75914;SDS011;64593;51.050;13.780;2024-03-08T13:25:06;17.70;;;9.48;;
75914;SDS011;64593;51.050;13.780;2024-03-08T13:30:14;15.63;;;8.85;;
75914;SDS011;64593;51.050;13.780;2024-03-08T13:35:19;16.40;;;10.18;;
75914;SDS011;64593;51.050;13.780;2024-03-08T13:40:26;16.38;;;8.40;;
75914;SDS011;64593;51.050;13.780;2024-03-08T13:45:28;15.13;;;7.43;;
75914;SDS011;64593;51.050;13.780;2024-03-08T13:50:30;11.82;;;6.93;;
75914;SDS011;64593;51.050;13.780;2024-03-08T13:55:50;18.83;;;7.90;;
75914;SDS011;64593;51.050;13.780;2024-03-08T14:00:52;12.98;;;7.78;;
75914;SDS011;64593;51.050;13.780;2024-03-08T14:06:13;13.55;;;7.72;;
75914;SDS011;64593;51.050;13.780;2024-03-08T14:11:24;14.95;;;7.97;;
75914;SDS011;64593;51.050;13.780;2024-03-08T14:16:26;15.57;;;8.30;;
75914;SDS011;64593;51.050;13.780;2024-03-08T14:21:28;15.43;;;10.10;;
75914;SDS011;64593;51.050;13.780;2024-03-08T14:26:29;11.20;;;7.00;;
75914;SDS011;64593;51.050;13.780;2024-03-08T14:31:31;10.10;;;6.00;;
75914;SDS011;64593;51.050;13.780;2024-03-08T14:36:34;15.63;;;6.95;;
75914;SDS011;64593;51.050;13.780;2024-03-08T14:41:36;10.57;;;5.53;;
75914;SDS011;64593;51.050;13.780;2024-03-08T14:46:38;11.40;;;5.68;;
75914;SDS011;64593;51.050;13.780;2024-03-08T14:51:40;11.82;;;6.32;;
75914;SDS011;64593;51.050;13.780;2024-03-08T14:56:42;11.95;;;5.72;;
75914;SDS011;64593;51.050;13.780;2024-03-08T15:02:02;11.48;;;6.63;;
75914;SDS011;64593;51.050;13.780;2024-03-08T15:07:07;11.35;;;6.78;;
75914;SDS011;64593;51.050;13.780;2024-03-08T15:12:29;13.23;;;6.07;;
75914;SDS011;64593;51.050;13.780;2024-03-08T15:17:31;12.07;;;6.65;;
75914;SDS011;64593;51.050;13.780;2024-03-08T15:22:34;11.50;;;6.40;;
75914;SDS011;64593;51.050;13.780;2024-03-08T15:27:55;11.05;;;6.00;;
75914;SDS011;64593;51.050;13.780;2024-03-08T15:32:57;11.10;;;6.38;;
75914;SDS011;64593;51.050;13.780;2024-03-08T15:38:01;11.15;;;6.13;;
75914;SDS011;64593;51.050;13.780;2024-03-08T15:43:03;11.93;;;5.95;;
75914;SDS011;64593;51.050;13.780;2024-03-08T15:48:05;11.35;;;6.13;;
75914;SDS011;64593;51.050;13.780;2024-03-08T15:53:07;11.00;;;6.40;;
75914;SDS011;64593;51.050;13.780;2024-03-08T15:58:09;10.88;;;7.00;;
75914;SDS011;64593;51.050;13.780;2024-03-08T16:03:14;10.20;;;5.68;;
75914;SDS011;64593;51.050;13.780;2024-03-08T16:08:17;13.95;;;8.60;;
75914;SDS011;64593;51.050;13.780;2024-03-08T16:13:25;11.38;;;6.75;;
75914;SDS011;64593;51.050;13.780;2024-03-08T16:18:28;14.30;;;7.30;;
75914;SDS011;64593;51.050;13.780;2024-03-08T16:23:32;13.57;;;7.25;;
75914;SDS011;64593;51.050;13.780;2024-03-08T16:28:34;14.88;;;7.50;;
75914;SDS011;64593;51.050;13.780;2024-03-08T16:33:43;15.10;;;10.23;;
75914;SDS011;64593;51.050;13.780;2024-03-08T16:38:46;15.68;;;8.52;;
75914;SDS011;64593;51.050;13.780;2024-03-08T16:44:09;16.27;;;9.07;;
75914;SDS011;64593;51.050;13.780;2024-03-08T16:49:11;16.13;;;8.13;;
75914;SDS011;64593;51.050;13.780;2024-03-08T16:54:14;18.60;;;11.10;;
75914;SDS011;64593;51.050;13.780;2024-03-08T16:59:35;11.95;;;6.45;;
75914;SDS011;64593;51.050;13.780;2024-03-08T17:04:55;16.10;;;8.98;;
75914;SDS011;64593;51.050;13.780;2024-03-08T17:09:57;19.75;;;10.13;;
75914;SDS011;64593;51.050;13.780;2024-03-08T17:15:00;12.77;;;7.75;;
75914;SDS011;64593;51.050;13.780;2024-03-08T17:20:21;12.07;;;7.45;;
75914;SDS011;64593;51.050;13.780;2024-03-08T17:25:27;12.23;;;6.90;;
75914;SDS011;64593;51.050;13.780;2024-03-08T17:30:29;12.48;;;7.30;;
75914;SDS011;64593;51.050;13.780;2024-03-08T17:35:34;13.88;;;7.25;;
75914;SDS011;64593;51.050;13.780;2024-03-08T17:40:37;10.32;;;4.63;;
75914;SDS011;64593;51.050;13.780;2024-03-08T17:45:41;12.40;;;6.10;;
75914;SDS011;64593;51.050;13.780;2024-03-08T17:50:47;11.82;;;6.32;;
75914;SDS011;64593;51.050;13.780;2024-03-08T17:55:51;10.68;;;5.70;;
75914;SDS011;64593;51.050;13.780;2024-03-08T18:01:11;11.35;;;5.60;;
75914;SDS011;64593;51.050;13.780;2024-03-08T18:06:14;24.05;;;13.07;;
75914;SDS011;64593;51.050;13.780;2024-03-08T18:11:16;47.58;;;20.48;;
75914;SDS011;64593;51.050;13.780;2024-03-08T18:16:18;46.28;;;26.67;;
75914;SDS011;64593;51.050;13.780;2024-03-08T18:21:21;47.92;;;24.60;;
75914;SDS011;64593;51.050;13.780;2024-03-08T18:26:24;50.95;;;24.70;;
75914;SDS011;64593;51.050;13.780;2024-03-08T18:31:27;56.50;;;26.98;;
75914;SDS011;64593;51.050;13.780;2024-03-08T18:36:29;49.83;;;25.35;;
75914;SDS011;64593;51.050;13.780;2024-03-08T18:41:32;48.92;;;24.77;;
75914;SDS011;64593;51.050;13.780;2024-03-08T18:46:35;63.30;;;27.75;;
75914;SDS011;64593;51.050;13.780;2024-03-08T18:51:58;54.33;;;28.02;;
75914;SDS011;64593;51.050;13.780;2024-03-08T18:57:01;57.35;;;26.02;;
75914;SDS011;64593;51.050;13.780;2024-03-08T19:02:06;54.60;;;26.80;;
75914;SDS011;64593;51.050;13.780;2024-03-08T19:07:09;54.03;;;26.27;;
75914;SDS011;64593;51.050;13.780;2024-03-08T19:12:32;50.30;;;26.90;;
75914;SDS011;64593;51.050;13.780;2024-03-08T19:17:35;51.92;;;25.33;;
75914;SDS011;64593;51.050;13.780;2024-03-08T19:22:38;53.70;;;26.33;;
75914;SDS011;64593;51.050;13.780;2024-03-08T19:27:42;51.33;;;25.63;;
75914;SDS011;64593;51.050;13.780;2024-03-08T19:33:04;50.25;;;26.33;;
75914;SDS011;64593;51.050;13.780;2024-03-08T19:38:32;28.00;;;15.20;;
75914;SDS011;64593;51.050;13.780;2024-03-08T19:43:34;19.77;;;10.52;;
75914;SDS011;64593;51.050;13.780;2024-03-08T19:48:36;18.90;;;10.07;;
75914;SDS011;64593;51.050;13.780;2024-03-08T19:53:38;19.20;;;11.27;;
75914;SDS011;64593;51.050;13.780;2024-03-08T19:58:40;16.15;;;8.60;;
75914;SDS011;64593;51.050;13.780;2024-03-08T20:03:43;16.00;;;7.68;;
75914;SDS011;64593;51.050;13.780;2024-03-08T20:08:46;13.65;;;8.45;;
75914;SDS011;64593;51.050;13.780;2024-03-08T20:14:06;15.50;;;8.30;;
75914;SDS011;64593;51.050;13.780;2024-03-08T20:19:10;15.90;;;9.70;;
75914;SDS011;64593;51.050;13.780;2024-03-08T20:24:32;13.23;;;8.43;;
75914;SDS011;64593;51.050;13.780;2024-03-08T20:29:33;16.40;;;8.25;;
75914;SDS011;64593;51.050;13.780;2024-03-08T20:34:54;12.90;;;5.70;;
75914;SDS011;64593;51.050;13.780;2024-03-08T20:39:57;13.40;;;6.38;;
75914;SDS011;64593;51.050;13.780;2024-03-08T20:44:58;10.85;;;6.32;;
75914;SDS011;64593;51.050;13.780;2024-03-08T20:50:03;17.83;;;9.30;;
75914;SDS011;64593;51.050;13.780;2024-03-08T20:55:10;17.30;;;8.40;;
75914;SDS011;64593;51.050;13.780;2024-03-08T21:00:17;19.15;;;9.48;;
75914;SDS011;64593;51.050;13.780;2024-03-08T21:05:43;16.88;;;8.80;;
75914;SDS011;64593;51.050;13.780;2024-03-08T21:11:06;11.98;;;5.55;;
75914;SDS011;64593;51.050;13.780;2024-03-08T21:16:11;15.63;;;8.73;;
75914;SDS011;64593;51.050;13.780;2024-03-08T21:21:13;21.70;;;10.15;;
75914;SDS011;64593;51.050;13.780;2024-03-08T21:26:33;17.27;;;9.30;;
75914;SDS011;64593;51.050;13.780;2024-03-08T21:31:38;18.17;;;9.70;;
75914;SDS011;64593;51.050;13.780;2024-03-08T21:36:40;20.70;;;9.73;;
75914;SDS011;64593;51.050;13.780;2024-03-08T21:42:03;21.50;;;10.05;;
75914;SDS011;64593;51.050;13.780;2024-03-08T21:47:05;19.17;;;9.95;;
75914;SDS011;64593;51.050;13.780;2024-03-08T21:52:07;21.60;;;11.23;;
75914;SDS011;64593;51.050;13.780;2024-03-08T21:57:09;22.25;;;9.98;;
75914;SDS011;64593;51.050;13.780;2024-03-08T22:02:11;19.15;;;9.50;;
75914;SDS011;64593;51.050;13.780;2024-03-08T22:07:13;22.00;;;11.65;;
75914;SDS011;64593;51.050;13.780;2024-03-08T22:12:34;18.58;;;10.73;;
75914;SDS011;64593;51.050;13.780;2024-03-08T22:17:37;15.85;;;8.07;;
75914;SDS011;64593;51.050;13.780;2024-03-08T22:22:40;20.40;;;9.85;;
75914;SDS011;64593;51.050;13.780;2024-03-08T22:27:45;20.90;;;10.63;;
75914;SDS011;64593;51.050;13.780;2024-03-08T22:32:51;19.23;;;9.50;;
75914;SDS011;64593;51.050;13.780;2024-03-08T22:37:57;24.05;;;14.38;;
75914;SDS011;64593;51.050;13.780;2024-03-08T22:43:18;17.90;;;8.45;;
75914;SDS011;64593;51.050;13.780;2024-03-08T22:48:20;19.85;;;8.00;;
75914;SDS011;64593;51.050;13.780;2024-03-08T22:53:24;20.00;;;10.02;;
75914;SDS011;64593;51.050;13.780;2024-03-08T22:58:25;18.33;;;9.70;;
